createdAt,value
2023-05-01T00:00:45.377Z,20.14
2023-05-01T00:01:46.221Z,20.15
2023-05-01T00:02:45.311Z,20.14
2023-05-01T00:03:46.478Z,20.13
2023-05-01T00:04:45.268Z,20.13
2023-05-01T00:05:46.231Z,20.13
2023-05-01T00:06:46.445Z,20.13
2023-05-01T00:07:45.264Z,20.12
2023-05-01T00:08:45.285Z,20.12
2023-05-01T00:09:47.408Z,20.13
2023-05-01T00:10:46.291Z,20.12
2023-05-01T00:11:46.601Z,20.12
2023-05-01T00:12:46.321Z,20.12
2023-05-01T00:13:46.276Z,20.12
2023-05-01T00:14:45.397Z,20.12
2023-05-01T00:15:46.271Z,20.12
2023-05-01T00:16:46.347Z,20.11
2023-05-01T00:17:45.326Z,20.12
2023-05-01T00:18:46.386Z,20.11
2023-05-01T00:19:46.440Z,20.11
2023-05-01T00:20:46.372Z,20.11
2023-05-01T00:21:46.383Z,20.11
2023-05-01T00:22:46.440Z,20.10
2023-05-01T00:23:45.438Z,20.10
2023-05-01T00:24:45.397Z,20.10
2023-05-01T00:25:45.447Z,20.10
2023-05-01T00:26:45.456Z,20.09
2023-05-01T00:27:46.485Z,20.10
2023-05-01T00:28:45.386Z,20.10
2023-05-01T00:29:46.421Z,20.09
2023-05-01T00:30:46.418Z,20.08
2023-05-01T00:31:46.458Z,20.09
2023-05-01T00:32:45.483Z,20.08
2023-05-01T00:33:45.523Z,20.08
2023-05-01T00:34:46.466Z,20.08
2023-05-01T00:35:46.558Z,20.08
2023-05-01T00:36:48.591Z,20.08
2023-05-01T00:37:45.532Z,20.08
2023-05-01T00:38:45.477Z,20.09
2023-05-01T00:39:45.499Z,20.09
2023-05-01T00:40:46.491Z,20.07
2023-05-01T00:41:46.479Z,20.07
2023-05-01T00:42:46.476Z,20.06
2023-05-01T00:43:45.479Z,20.07
2023-05-01T00:44:46.508Z,20.07
2023-05-01T00:45:45.625Z,20.07
2023-05-01T00:46:45.441Z,20.07
2023-05-01T00:47:46.586Z,20.07
2023-05-01T00:48:46.474Z,20.07
2023-05-01T00:49:45.445Z,20.06
2023-05-01T00:50:46.426Z,20.07
2023-05-01T00:51:46.416Z,20.07
2023-05-01T00:52:46.407Z,20.07
2023-05-01T00:53:46.393Z,20.06
2023-05-01T00:54:46.386Z,20.06
2023-05-01T00:55:45.385Z,20.06
2023-05-01T00:56:46.481Z,20.05
2023-05-01T00:57:46.385Z,20.04
2023-05-01T00:58:46.367Z,20.04
2023-05-01T00:59:46.727Z,20.04
2023-05-01T01:00:46.363Z,20.04
2023-05-01T01:01:45.413Z,20.04
2023-05-01T01:02:46.345Z,20.04
2023-05-01T01:03:46.449Z,20.03
2023-05-01T01:04:46.376Z,20.03
2023-05-01T01:05:46.348Z,20.03
2023-05-01T01:06:46.452Z,20.02
2023-05-01T01:07:46.336Z,20.04
2023-05-01T01:08:46.276Z,20.04
2023-05-01T01:09:46.273Z,20.03
2023-05-01T01:10:46.287Z,20.02
2023-05-01T01:11:45.356Z,20.03
2023-05-01T01:12:45.379Z,20.03
2023-05-01T01:13:46.283Z,20.04
2023-05-01T01:14:46.305Z,20.04
2023-05-01T01:15:45.265Z,20.04
2023-05-01T01:16:46.301Z,20.03
2023-05-01T01:17:46.250Z,20.03
2023-05-01T01:18:46.320Z,20.04
2023-05-01T01:19:45.201Z,20.05
2023-05-01T01:20:46.220Z,20.04
2023-05-01T01:21:46.197Z,20.03
2023-05-01T01:22:46.267Z,20.03
2023-05-01T01:23:46.170Z,20.02
2023-05-01T01:24:46.179Z,20.02
2023-05-01T01:25:45.265Z,20.02
2023-05-01T01:26:46.200Z,20.02
2023-05-01T01:27:45.186Z,20.02
2023-05-01T01:28:46.490Z,20.01
2023-05-01T01:29:46.262Z,20.01
2023-05-01T01:30:45.295Z,20.01
2023-05-01T01:31:45.371Z,20.00
2023-05-01T01:32:46.296Z,20.00
2023-05-01T01:33:45.306Z,20.01
2023-05-01T01:34:45.304Z,20.01
2023-05-01T01:35:46.429Z,20.01
2023-05-01T01:36:45.379Z,20.01
2023-05-01T01:37:46.437Z,20.00
2023-05-01T01:38:46.439Z,20.01
2023-05-01T01:39:45.553Z,20.00
2023-05-01T01:40:46.565Z,20.00
2023-05-01T01:41:46.445Z,19.99
2023-05-01T01:42:45.662Z,19.99
2023-05-01T01:43:46.479Z,19.99
2023-05-01T01:44:45.648Z,19.99
2023-05-01T01:45:46.493Z,19.99
2023-05-01T01:46:46.542Z,19.98
2023-05-01T01:47:45.613Z,19.99
2023-05-01T01:48:46.500Z,19.99
2023-05-01T01:49:45.516Z,19.98
2023-05-01T01:50:46.546Z,19.98
2023-05-01T01:51:47.365Z,19.98
2023-05-01T01:52:46.569Z,19.98
2023-05-01T01:53:45.568Z,19.98
2023-05-01T01:54:45.823Z,19.98
2023-05-01T01:55:45.586Z,19.99
2023-05-01T01:56:46.613Z,19.98
2023-05-01T01:57:46.603Z,19.98
2023-05-01T01:58:45.669Z,19.97
2023-05-01T01:59:46.692Z,19.97
2023-05-01T02:00:46.697Z,19.98
2023-05-01T02:01:45.845Z,19.97
2023-05-01T02:02:46.698Z,19.97
2023-05-01T02:03:46.832Z,19.97
2023-05-01T02:04:45.739Z,19.96
2023-05-01T02:05:46.831Z,19.97
2023-05-01T02:06:45.859Z,19.95
2023-05-01T02:07:45.764Z,19.96
2023-05-01T02:08:46.723Z,19.95
2023-05-01T02:09:45.754Z,19.96
2023-05-01T02:10:46.857Z,19.97
2023-05-01T02:11:46.788Z,19.96
2023-05-01T02:12:46.934Z,19.95
2023-05-01T02:13:46.867Z,19.95
2023-05-01T02:14:46.824Z,19.94
2023-05-01T02:15:46.869Z,19.94
2023-05-01T02:16:46.904Z,19.94
2023-05-01T02:17:47.074Z,19.95
2023-05-01T02:18:46.872Z,19.94
2023-05-01T02:19:45.872Z,19.94
2023-05-01T02:20:45.840Z,19.95
2023-05-01T02:21:45.866Z,19.94
2023-05-01T02:22:45.925Z,19.93
2023-05-01T02:23:46.976Z,19.93
2023-05-01T02:24:47.965Z,19.93
2023-05-01T02:25:47.211Z,19.93
2023-05-01T02:26:46.159Z,19.93
2023-05-01T02:27:47.142Z,19.93
2023-05-01T02:28:47.171Z,19.94
2023-05-01T02:29:46.277Z,19.93
2023-05-01T02:30:46.230Z,19.93
2023-05-01T02:31:46.273Z,19.93
2023-05-01T02:32:47.334Z,19.93
2023-05-01T02:33:47.233Z,19.93
2023-05-01T02:34:47.280Z,19.92
2023-05-01T02:35:47.392Z,19.92
2023-05-01T02:36:47.320Z,19.92
2023-05-01T02:37:46.358Z,19.91
2023-05-01T02:38:47.356Z,19.92
2023-05-01T02:39:47.469Z,19.92
2023-05-01T02:40:47.382Z,19.92
2023-05-01T02:41:47.428Z,19.92
2023-05-01T02:42:49.463Z,19.91
2023-05-01T02:43:47.854Z,19.91
2023-05-01T02:44:46.599Z,19.90
2023-05-01T02:45:47.699Z,19.91
2023-05-01T02:46:47.857Z,19.91
2023-05-01T02:47:47.441Z,19.91
2023-05-01T02:48:46.434Z,19.91
2023-05-01T02:49:47.576Z,19.90
2023-05-01T02:50:46.463Z,19.91
2023-05-01T02:51:46.383Z,19.91
2023-05-01T02:52:46.397Z,19.91
2023-05-01T02:53:46.356Z,19.90
2023-05-01T02:54:47.354Z,19.90
2023-05-01T02:55:46.367Z,19.90
2023-05-01T02:56:46.348Z,19.89
2023-05-01T02:57:47.317Z,19.89
2023-05-01T02:58:46.342Z,19.90
2023-05-01T02:59:47.322Z,19.90
2023-05-01T03:00:47.405Z,19.89
2023-05-01T03:01:47.503Z,19.88
2023-05-01T03:02:46.405Z,19.88
2023-05-01T03:03:46.415Z,19.88
2023-05-01T03:04:46.430Z,19.88
2023-05-01T03:05:46.283Z,19.88
2023-05-01T03:06:47.347Z,19.88
2023-05-01T03:07:47.331Z,19.87
2023-05-01T03:08:47.357Z,19.87
2023-05-01T03:09:47.258Z,19.87
2023-05-01T03:10:47.272Z,19.88
2023-05-01T03:11:46.252Z,19.88
2023-05-01T03:12:47.229Z,19.88
2023-05-01T03:13:47.267Z,19.88
2023-05-01T03:14:46.304Z,19.86
2023-05-01T03:15:47.319Z,19.87
2023-05-01T03:16:46.364Z,19.87
2023-05-01T03:17:46.335Z,19.87
2023-05-01T03:18:46.428Z,19.87
2023-05-01T03:19:47.350Z,19.87
2023-05-01T03:20:47.388Z,19.88
2023-05-01T03:21:47.396Z,19.86
2023-05-01T03:22:47.461Z,19.86
2023-05-01T03:23:47.472Z,19.86
2023-05-01T03:24:47.496Z,19.87
2023-05-01T03:25:47.620Z,19.87
2023-05-01T03:26:47.636Z,19.87
2023-05-01T03:27:46.582Z,19.87
2023-05-01T03:28:46.936Z,19.86
2023-05-01T03:29:47.736Z,19.86
2023-05-01T03:30:46.719Z,19.86
2023-05-01T03:31:47.718Z,19.86
2023-05-01T03:32:47.679Z,19.86
2023-05-01T03:33:47.937Z,19.86
2023-05-01T03:34:46.717Z,19.85
2023-05-01T03:35:47.805Z,19.85
2023-05-01T03:36:47.802Z,19.85
2023-05-01T03:37:46.737Z,19.85
2023-05-01T03:38:47.839Z,19.85
2023-05-01T03:39:47.910Z,19.84
2023-05-01T03:40:47.646Z,19.84
2023-05-01T03:41:47.662Z,19.84
2023-05-01T03:42:46.657Z,19.84
2023-05-01T03:43:47.641Z,19.83
2023-05-01T03:44:47.635Z,19.83
2023-05-01T03:45:46.647Z,19.84
2023-05-01T03:46:46.851Z,19.83
2023-05-01T03:47:47.835Z,19.83
2023-05-01T03:48:47.624Z,19.83
2023-05-01T03:49:46.640Z,19.83
2023-05-01T03:50:46.650Z,19.83
2023-05-01T03:51:48.079Z,19.82
2023-05-01T03:52:47.806Z,19.82
2023-05-01T03:53:47.672Z,19.82
2023-05-01T03:54:47.614Z,19.82
2023-05-01T03:55:47.586Z,19.82
2023-05-01T03:56:46.571Z,19.82
2023-05-01T03:57:47.586Z,19.83
2023-05-01T03:58:47.534Z,19.83
2023-05-01T03:59:47.539Z,19.83
2023-05-01T04:00:46.514Z,19.82
2023-05-01T04:01:47.575Z,19.81
2023-05-01T04:02:49.310Z,19.82
2023-05-01T04:03:47.936Z,19.82
2023-05-01T04:04:47.788Z,19.81
2023-05-01T04:05:50.027Z,19.82
2023-05-01T04:06:47.824Z,19.82
2023-05-01T04:07:48.698Z,19.82
2023-05-01T04:08:49.138Z,19.83
2023-05-01T04:09:46.665Z,19.83
2023-05-01T04:10:46.655Z,19.82
2023-05-01T04:11:46.669Z,19.82
2023-05-01T04:12:47.686Z,19.83
2023-05-01T04:13:48.937Z,19.83
2023-05-01T04:14:48.036Z,19.84
2023-05-01T04:15:47.986Z,19.83
2023-05-01T04:16:48.713Z,19.81
2023-05-01T04:17:49.617Z,19.81
2023-05-01T04:18:47.417Z,19.81
2023-05-01T04:19:48.439Z,19.80
2023-05-01T04:20:48.270Z,19.79
2023-05-01T04:21:48.196Z,19.80
2023-05-01T04:22:48.007Z,19.79
2023-05-01T04:23:48.546Z,19.79
2023-05-01T04:24:46.716Z,19.80
2023-05-01T04:25:47.791Z,19.81
2023-05-01T04:26:47.718Z,19.80
2023-05-01T04:27:46.741Z,19.79
2023-05-01T04:28:47.736Z,19.79
2023-05-01T04:29:47.738Z,19.78
2023-05-01T04:30:48.272Z,19.79
2023-05-01T04:31:49.325Z,19.80
2023-05-01T04:32:48.064Z,19.79
2023-05-01T04:33:48.067Z,19.79
2023-05-01T04:34:47.887Z,19.79
2023-05-01T04:35:48.366Z,19.79
2023-05-01T04:36:48.010Z,19.78
2023-05-01T04:37:47.416Z,19.78
2023-05-01T04:38:47.767Z,19.79
2023-05-01T04:39:46.760Z,19.79
2023-05-01T04:40:47.979Z,19.78
2023-05-01T04:41:47.725Z,19.79
2023-05-01T04:42:47.709Z,19.78
2023-05-01T04:43:47.726Z,19.78
2023-05-01T04:44:47.724Z,19.79
2023-05-01T04:45:47.702Z,19.79
2023-05-01T04:46:47.726Z,19.78
2023-05-01T04:47:48.127Z,19.78
2023-05-01T04:48:48.993Z,19.78
2023-05-01T04:49:49.651Z,19.79
2023-05-01T04:50:46.894Z,19.79
2023-05-01T04:51:47.811Z,19.79
2023-05-01T04:52:47.829Z,19.79
2023-05-01T04:53:47.694Z,19.80
2023-05-01T04:54:47.658Z,19.80
2023-05-01T04:55:47.632Z,19.80
2023-05-01T04:56:47.605Z,19.80
2023-05-01T04:57:47.625Z,19.80
2023-05-01T04:58:46.602Z,19.81
2023-05-01T04:59:47.620Z,19.80
2023-05-01T05:00:47.831Z,19.81
2023-05-01T05:01:48.878Z,19.79
2023-05-01T05:02:47.811Z,19.79
2023-05-01T05:03:49.969Z,19.79
2023-05-01T05:04:47.120Z,19.79
2023-05-01T05:05:46.709Z,19.81
2023-05-01T05:06:47.684Z,19.81
2023-05-01T05:07:47.917Z,19.80
2023-05-01T05:08:47.944Z,19.80
2023-05-01T05:09:47.899Z,19.80
2023-05-01T05:10:46.871Z,19.80
2023-05-01T05:11:47.788Z,19.82
2023-05-01T05:12:47.927Z,19.81
2023-05-01T05:13:46.636Z,19.82
2023-05-01T05:14:47.482Z,19.83
2023-05-01T05:15:47.509Z,19.84
2023-05-01T05:16:47.752Z,19.83
2023-05-01T05:17:47.526Z,19.85
2023-05-01T05:18:47.490Z,19.85
2023-05-01T05:19:47.497Z,19.84
2023-05-01T05:20:47.542Z,19.85
2023-05-01T05:21:47.537Z,19.84
2023-05-01T05:22:47.560Z,19.85
2023-05-01T05:23:47.608Z,19.84
2023-05-01T05:24:46.615Z,19.85
2023-05-01T05:25:46.646Z,19.85
2023-05-01T05:26:47.667Z,19.85
2023-05-01T05:27:46.698Z,19.86
2023-05-01T05:28:46.752Z,19.85
2023-05-01T05:29:47.725Z,19.85
2023-05-01T05:30:46.756Z,19.86
2023-05-01T05:31:47.815Z,19.86
2023-05-01T05:32:46.883Z,19.86
2023-05-01T05:33:47.835Z,19.86
2023-05-01T05:34:47.863Z,19.86
2023-05-01T05:35:46.861Z,19.87
2023-05-01T05:36:47.933Z,19.87
2023-05-01T05:37:46.912Z,19.86
2023-05-01T05:38:46.950Z,19.85
2023-05-01T05:39:47.966Z,19.85
2023-05-01T05:40:48.105Z,19.84
2023-05-01T05:41:47.987Z,19.85
2023-05-01T05:42:47.000Z,19.86
2023-05-01T05:43:48.031Z,19.86
2023-05-01T05:44:48.019Z,19.86
2023-05-01T05:45:47.074Z,19.87
2023-05-01T05:46:47.098Z,19.88
2023-05-01T05:47:48.158Z,19.87
2023-05-01T05:48:47.127Z,19.89
2023-05-01T05:49:47.141Z,19.88
2023-05-01T05:50:47.155Z,19.89
2023-05-01T05:51:48.291Z,19.89
2023-05-01T05:52:48.240Z,19.88
2023-05-01T05:53:47.238Z,19.88
2023-05-01T05:54:47.241Z,19.89
2023-05-01T05:55:47.287Z,19.89
2023-05-01T05:56:48.287Z,19.89
2023-05-01T05:57:48.300Z,19.89
2023-05-01T05:58:47.339Z,19.89
2023-05-01T05:59:48.400Z,19.90
2023-05-01T06:00:48.388Z,19.91
2023-05-01T06:01:48.416Z,19.91
2023-05-01T06:02:48.588Z,19.91
2023-05-01T06:03:48.552Z,19.91
2023-05-01T06:04:48.501Z,19.91
2023-05-01T06:05:48.492Z,19.91
2023-05-01T06:06:48.581Z,19.92
2023-05-01T06:07:47.582Z,19.92
2023-05-01T06:08:47.559Z,19.92
2023-05-01T06:09:48.568Z,19.92
2023-05-01T06:10:47.565Z,19.92
2023-05-01T06:11:48.582Z,19.93
2023-05-01T06:12:51.580Z,19.92
2023-05-01T06:13:48.596Z,19.92
2023-05-01T06:14:48.695Z,19.92
2023-05-01T06:15:48.652Z,19.93
2023-05-01T06:16:48.561Z,19.94
2023-05-01T06:17:48.687Z,19.94
2023-05-01T06:18:48.571Z,19.94
2023-05-01T06:19:47.599Z,19.94
2023-05-01T06:20:47.562Z,19.94
2023-05-01T06:21:48.669Z,19.94
2023-05-01T06:22:48.541Z,19.94
2023-05-01T06:23:48.577Z,19.94
2023-05-01T06:24:48.555Z,19.95
2023-05-01T06:25:47.533Z,19.95
2023-05-01T06:26:48.512Z,19.96
2023-05-01T06:27:47.506Z,19.96
2023-05-01T06:28:48.507Z,19.96
2023-05-01T06:29:48.568Z,19.96
2023-05-01T06:30:47.485Z,19.96
2023-05-01T06:31:48.551Z,19.95
2023-05-01T06:32:48.607Z,19.96
2023-05-01T06:33:48.507Z,19.96
2023-05-01T06:34:47.451Z,19.96
2023-05-01T06:35:48.461Z,19.97
2023-05-01T06:36:48.484Z,19.96
2023-05-01T06:37:47.447Z,19.97
2023-05-01T06:38:48.456Z,19.97
2023-05-01T06:39:48.432Z,19.96
2023-05-01T06:40:47.464Z,19.96
2023-05-01T06:41:48.485Z,19.95
2023-05-01T06:42:48.529Z,19.96
2023-05-01T06:43:48.581Z,19.96
2023-05-01T06:44:48.531Z,19.96
2023-05-01T06:45:48.573Z,19.97
2023-05-01T06:46:47.700Z,19.97
2023-05-01T06:47:48.692Z,19.96
2023-05-01T06:48:47.621Z,19.96
2023-05-01T06:49:48.706Z,19.97
2023-05-01T06:50:48.643Z,19.97
2023-05-01T06:51:48.670Z,19.97
2023-05-01T06:52:48.719Z,19.98
2023-05-01T06:53:47.739Z,19.97
2023-05-01T06:54:47.734Z,19.97
2023-05-01T06:55:48.704Z,19.97
2023-05-01T06:56:48.769Z,19.98
2023-05-01T06:57:47.786Z,19.98
2023-05-01T06:58:48.808Z,19.98
2023-05-01T06:59:47.815Z,19.98
2023-05-01T07:00:48.021Z,19.99
2023-05-01T07:01:47.889Z,19.99
2023-05-01T07:02:49.064Z,19.99
2023-05-01T07:03:48.034Z,19.99
2023-05-01T07:04:47.956Z,19.98
2023-05-01T07:05:49.388Z,19.99
2023-05-01T07:06:49.133Z,19.99
2023-05-01T07:07:58.085Z,19.99
2023-05-01T07:08:49.533Z,19.99
2023-05-01T07:09:49.163Z,19.99
2023-05-01T07:10:50.423Z,19.99
2023-05-01T07:11:49.204Z,20.00
2023-05-01T07:12:49.811Z,20.00
2023-05-01T07:13:49.393Z,20.00
2023-05-01T07:14:49.043Z,20.00
2023-05-01T07:15:48.157Z,20.00
2023-05-01T07:16:49.124Z,20.01
2023-05-01T07:17:49.082Z,20.02
2023-05-01T07:18:49.075Z,20.01
2023-05-01T07:19:49.212Z,20.03
2023-05-01T07:20:49.084Z,20.02
2023-05-01T07:21:48.129Z,20.03
2023-05-01T07:22:48.138Z,20.03
2023-05-01T07:23:49.280Z,20.04
2023-05-01T07:24:49.175Z,20.05
2023-05-01T07:25:49.215Z,20.06
2023-05-01T07:26:49.203Z,20.06
2023-05-01T07:27:49.220Z,20.07
2023-05-01T07:28:49.229Z,20.08
2023-05-01T07:29:49.216Z,20.08
2023-05-01T07:30:49.251Z,20.08
2023-05-01T07:31:49.259Z,20.08
2023-05-01T07:32:48.275Z,20.09
2023-05-01T07:33:48.245Z,20.08
2023-05-01T07:34:49.317Z,20.08
2023-05-01T07:35:49.270Z,20.09
2023-05-01T07:36:48.261Z,20.10
2023-05-01T07:37:48.252Z,20.09
2023-05-01T07:38:48.230Z,20.11
2023-05-01T07:39:49.299Z,20.11
2023-05-01T07:40:49.361Z,20.12
2023-05-01T07:41:49.268Z,20.12
2023-05-01T07:42:49.369Z,20.12
2023-05-01T07:43:48.312Z,20.12
2023-05-01T07:44:48.322Z,20.13
2023-05-01T07:45:48.473Z,20.14
2023-05-01T07:46:49.360Z,20.14
2023-05-01T07:47:49.550Z,20.15
2023-05-01T07:48:48.413Z,20.15
2023-05-01T07:49:48.437Z,20.15
2023-05-01T07:50:49.521Z,20.15
2023-05-01T07:51:48.534Z,20.16
2023-05-01T07:52:49.481Z,20.16
2023-05-01T07:53:49.526Z,20.16
2023-05-01T07:54:49.542Z,20.17
2023-05-01T07:55:49.582Z,20.17
2023-05-01T07:56:49.831Z,20.18
2023-05-01T07:57:49.612Z,20.18
2023-05-01T07:58:48.631Z,20.19
2023-05-01T07:59:48.679Z,20.20
2023-05-01T08:00:49.734Z,20.20
2023-05-01T08:01:48.727Z,20.20
2023-05-01T08:02:49.893Z,20.20
2023-05-01T08:03:50.912Z,20.21
2023-05-01T08:04:50.000Z,20.21
2023-05-01T08:05:48.961Z,20.22
2023-05-01T08:06:50.014Z,20.23
2023-05-01T08:07:49.991Z,20.22
2023-05-01T08:08:49.046Z,20.23
2023-05-01T08:09:49.160Z,20.23
2023-05-01T08:10:50.112Z,20.24
2023-05-01T08:11:50.329Z,20.24
2023-05-01T08:12:50.206Z,20.25
2023-05-01T08:13:50.311Z,20.25
2023-05-01T08:14:50.335Z,20.26
2023-05-01T08:15:50.377Z,20.27
2023-05-01T08:16:50.424Z,20.27
2023-05-01T08:17:50.644Z,20.28
2023-05-01T08:18:50.587Z,20.29
2023-05-01T08:19:50.637Z,20.30
2023-05-01T08:20:49.639Z,20.29
2023-05-01T08:21:50.691Z,20.31
2023-05-01T08:22:50.711Z,20.30
2023-05-01T08:23:50.775Z,20.32
2023-05-01T08:24:50.843Z,20.31
2023-05-01T08:25:50.962Z,20.32
2023-05-01T08:26:50.936Z,20.33
2023-05-01T08:27:50.956Z,20.33
2023-05-01T08:28:51.031Z,20.33
2023-05-01T08:29:50.048Z,20.33
2023-05-01T08:30:50.137Z,20.34
2023-05-01T08:31:50.264Z,20.34
2023-05-01T08:32:51.334Z,20.33
2023-05-01T08:33:51.259Z,20.33
2023-05-01T08:34:50.330Z,20.34
2023-05-01T08:35:50.335Z,20.34
2023-05-01T08:36:51.451Z,20.34
2023-05-01T08:37:51.438Z,20.34
2023-05-01T08:38:51.517Z,20.35
2023-05-01T08:39:51.652Z,20.35
2023-05-01T08:40:50.641Z,20.35
2023-05-01T08:41:50.724Z,20.36
2023-05-01T08:42:51.680Z,20.36
2023-05-01T08:43:51.732Z,20.36
2023-05-01T08:44:50.820Z,20.37
2023-05-01T08:45:51.932Z,20.37
2023-05-01T08:46:51.926Z,20.37
2023-05-01T08:47:51.899Z,20.37
2023-05-01T08:48:51.959Z,20.38
2023-05-01T08:49:52.036Z,20.38
2023-05-01T08:50:52.042Z,20.38
2023-05-01T08:51:51.086Z,20.39
2023-05-01T08:52:51.160Z,20.38
2023-05-01T08:53:51.190Z,20.40
2023-05-01T08:54:52.294Z,20.39
2023-05-01T08:55:51.230Z,20.39
2023-05-01T08:56:52.278Z,20.40
2023-05-01T08:57:51.436Z,20.40
2023-05-01T08:58:51.404Z,20.40
2023-05-01T08:59:52.478Z,20.41
2023-05-01T09:00:51.474Z,20.41
2023-05-01T09:01:51.642Z,20.42
2023-05-01T09:02:51.672Z,20.42
2023-05-01T09:03:52.720Z,20.43
2023-05-01T09:04:52.747Z,20.43
2023-05-01T09:05:52.733Z,20.44
2023-05-01T09:06:52.851Z,20.45
2023-05-01T09:07:51.801Z,20.44
2023-05-01T09:08:52.841Z,20.46
2023-05-01T09:09:51.936Z,20.47
2023-05-01T09:10:52.887Z,20.47
2023-05-01T09:11:51.991Z,20.48
2023-05-01T09:12:53.034Z,20.48
2023-05-01T09:13:53.074Z,20.48
2023-05-01T09:14:53.112Z,20.49
2023-05-01T09:15:53.264Z,20.49
2023-05-01T09:16:52.240Z,20.50
2023-05-01T09:17:53.209Z,20.51
2023-05-01T09:18:53.240Z,20.51
2023-05-01T09:19:53.421Z,20.51
2023-05-01T09:20:52.323Z,20.51
2023-05-01T09:21:52.333Z,20.51
2023-05-01T09:22:53.375Z,20.51
2023-05-01T09:23:53.393Z,20.52
2023-05-01T09:24:53.443Z,20.53
2023-05-01T09:25:53.497Z,20.53
2023-05-01T09:26:53.583Z,20.54
2023-05-01T09:27:52.581Z,20.53
2023-05-01T09:28:52.595Z,20.55
2023-05-01T09:29:52.634Z,20.54
2023-05-01T09:30:52.644Z,20.54
2023-05-01T09:31:53.680Z,20.55
2023-05-01T09:32:52.743Z,20.55
2023-05-01T09:33:52.736Z,20.57
2023-05-01T09:34:52.828Z,20.56
2023-05-01T09:35:53.804Z,20.57
2023-05-01T09:36:53.829Z,20.57
2023-05-01T09:37:53.849Z,20.58
2023-05-01T09:38:53.881Z,20.57
2023-05-01T09:39:53.949Z,20.58
2023-05-01T09:40:53.947Z,20.59
2023-05-01T09:41:53.012Z,20.60
2023-05-01T09:42:54.024Z,20.59
2023-05-01T09:43:54.059Z,20.60
2023-05-01T09:44:53.044Z,20.61
2023-05-01T09:45:54.173Z,20.60
2023-05-01T09:46:53.112Z,20.61
2023-05-01T09:47:53.209Z,20.61
2023-05-01T09:48:54.168Z,20.60
2023-05-01T09:49:54.458Z,20.61
2023-05-01T09:50:53.221Z,20.61
2023-05-01T09:51:54.294Z,20.62
2023-05-01T09:52:54.340Z,20.62
2023-05-01T09:53:53.433Z,20.62
2023-05-01T09:54:54.414Z,20.62
2023-05-01T09:55:53.392Z,20.63
2023-05-01T09:56:54.429Z,20.64
2023-05-01T09:57:54.457Z,20.64
2023-05-01T09:58:54.523Z,20.64
2023-05-01T09:59:54.801Z,20.65
2023-05-01T10:00:54.595Z,20.65
2023-05-01T10:01:53.702Z,20.65
2023-05-01T10:02:53.768Z,20.66
2023-05-01T10:03:54.778Z,20.65
2023-05-01T10:04:53.681Z,20.65
2023-05-01T10:05:53.739Z,20.66
2023-05-01T10:06:54.868Z,20.66
2023-05-01T10:07:54.759Z,20.66
2023-05-01T10:08:54.845Z,20.67
2023-05-01T10:09:55.051Z,20.67
2023-05-01T10:10:53.894Z,20.67
2023-05-01T10:11:55.524Z,20.67
2023-05-01T10:12:53.898Z,20.68
2023-05-01T10:13:53.930Z,20.68
2023-05-01T10:14:55.178Z,20.68
2023-05-01T10:15:55.436Z,20.69
2023-05-01T10:16:54.061Z,20.69
2023-05-01T10:17:55.246Z,20.69
2023-05-01T10:18:55.046Z,20.70
2023-05-01T10:19:55.336Z,20.70
2023-05-01T10:20:55.101Z,20.71
2023-05-01T10:21:54.116Z,20.71
2023-05-01T10:22:55.075Z,20.72
2023-05-01T10:23:54.143Z,20.72
2023-05-01T10:24:54.125Z,20.73
2023-05-01T10:25:55.215Z,20.73
2023-05-01T10:26:55.161Z,20.73
2023-05-01T10:27:55.207Z,20.74
2023-05-01T10:28:55.191Z,20.74
2023-05-01T10:29:55.323Z,20.75
2023-05-01T10:30:54.296Z,20.74
2023-05-01T10:31:55.280Z,20.75
2023-05-01T10:32:55.310Z,20.76
2023-05-01T10:33:54.249Z,20.77
2023-05-01T10:34:55.565Z,20.78
2023-05-01T10:35:55.329Z,20.78
2023-05-01T10:36:55.319Z,20.80
2023-05-01T10:37:55.317Z,20.80
2023-05-01T10:38:55.360Z,20.80
2023-05-01T10:39:55.328Z,20.80
2023-05-01T10:40:55.370Z,20.80
2023-05-01T10:41:55.372Z,20.81
2023-05-01T10:42:55.427Z,20.81
2023-05-01T10:43:55.451Z,20.82
2023-05-01T10:44:54.586Z,20.84
2023-05-01T10:45:55.492Z,20.84
2023-05-01T10:46:54.639Z,20.84
2023-05-01T10:47:54.486Z,20.84
2023-05-01T10:48:55.485Z,20.84
2023-05-01T10:49:55.523Z,20.84
2023-05-01T10:50:55.580Z,20.83
2023-05-01T10:51:55.548Z,20.83
2023-05-01T10:52:55.552Z,20.83
2023-05-01T10:53:55.586Z,20.83
2023-05-01T10:54:54.828Z,20.83
2023-05-01T10:55:55.683Z,20.82
2023-05-01T10:56:54.646Z,20.83
2023-05-01T10:57:54.589Z,20.82
2023-05-01T10:58:55.650Z,20.82
2023-05-01T10:59:55.689Z,20.83
2023-05-01T11:00:54.636Z,20.82
2023-05-01T11:01:54.757Z,20.81
2023-05-01T11:02:54.684Z,20.81
2023-05-01T11:03:54.687Z,20.83
2023-05-01T11:04:54.836Z,20.82
2023-05-01T11:05:55.766Z,20.83
2023-05-01T11:06:55.836Z,20.83
2023-05-01T11:07:54.767Z,20.83
2023-05-01T11:08:54.752Z,20.82
2023-05-01T11:09:55.999Z,20.82
2023-05-01T11:10:55.798Z,20.82
2023-05-01T11:11:55.816Z,20.83
2023-05-01T11:12:55.835Z,20.82
2023-05-01T11:13:55.902Z,20.83
2023-05-01T11:14:56.153Z,20.82
2023-05-01T11:15:56.010Z,20.82
2023-05-01T11:16:55.036Z,20.81
2023-05-01T11:17:56.127Z,20.81
2023-05-01T11:18:55.995Z,20.82
2023-05-01T11:19:55.998Z,20.82
2023-05-01T11:20:55.025Z,20.82
2023-05-01T11:21:55.034Z,20.83
2023-05-01T11:22:56.100Z,20.82
2023-05-01T11:23:56.082Z,20.82
2023-05-01T11:24:55.466Z,20.82
2023-05-01T11:25:55.107Z,20.82
2023-05-01T11:26:55.124Z,20.82
2023-05-01T11:27:55.202Z,20.83
2023-05-01T11:28:55.206Z,20.83
2023-05-01T11:29:56.179Z,20.84
2023-05-01T11:30:55.236Z,20.84
2023-05-01T11:31:55.302Z,20.84
2023-05-01T11:32:55.243Z,20.83
2023-05-01T11:33:56.255Z,20.83
2023-05-01T11:34:55.539Z,20.84
2023-05-01T11:35:56.246Z,20.84
2023-05-01T11:36:56.323Z,20.85
2023-05-01T11:37:56.273Z,20.85
2023-05-01T11:38:55.280Z,20.84
2023-05-01T11:39:56.282Z,20.85
2023-05-01T11:40:56.284Z,20.85
2023-05-01T11:41:56.329Z,20.85
2023-05-01T11:42:55.301Z,20.85
2023-05-01T11:43:56.294Z,20.85
2023-05-01T11:44:55.450Z,20.86
2023-05-01T11:45:56.440Z,20.85
2023-05-01T11:46:55.319Z,20.85
2023-05-01T11:47:56.402Z,20.86
2023-05-01T11:48:55.359Z,20.86
2023-05-01T11:49:56.366Z,20.86
2023-05-01T11:50:56.396Z,20.86
2023-05-01T11:51:56.470Z,20.86
2023-05-01T11:52:56.410Z,20.86
2023-05-01T11:53:56.470Z,20.86
2023-05-01T11:54:55.483Z,20.85
2023-05-01T11:55:55.511Z,20.86
2023-05-01T11:56:56.585Z,20.86
2023-05-01T11:57:56.529Z,20.85
2023-05-01T11:58:56.516Z,20.85
2023-05-01T11:59:56.574Z,20.85
2023-05-01T12:00:55.545Z,20.85
2023-05-01T12:01:56.986Z,20.84
2023-05-01T12:02:56.370Z,20.84
2023-05-01T12:03:55.726Z,20.84
2023-05-01T12:04:55.805Z,20.83
2023-05-01T12:05:56.048Z,20.83
2023-05-01T12:06:56.674Z,20.82
2023-05-01T12:07:56.679Z,20.82
2023-05-01T12:08:56.713Z,20.82
2023-05-01T12:09:56.732Z,20.82
2023-05-01T12:10:56.714Z,20.82
2023-05-01T12:11:55.836Z,20.83
2023-05-01T12:12:56.797Z,20.82
2023-05-01T12:13:56.765Z,20.82
2023-05-01T12:14:57.022Z,20.82
2023-05-01T12:15:55.854Z,20.82
2023-05-01T12:16:55.904Z,20.82
2023-05-01T12:17:56.915Z,20.83
2023-05-01T12:18:56.942Z,20.82
2023-05-01T12:19:56.908Z,20.83
2023-05-01T12:20:55.962Z,20.82
2023-05-01T12:21:56.967Z,20.82
2023-05-01T12:22:55.996Z,20.82
2023-05-01T12:23:57.023Z,20.82
2023-05-01T12:24:57.351Z,20.82
2023-05-01T12:25:57.030Z,20.82
2023-05-01T12:26:57.196Z,20.82
2023-05-01T12:27:57.117Z,20.81
2023-05-01T12:28:56.087Z,20.82
2023-05-01T12:29:56.254Z,20.81
2023-05-01T12:30:56.130Z,20.81
2023-05-01T12:31:56.225Z,20.81
2023-05-01T12:32:57.218Z,20.80
2023-05-01T12:33:57.179Z,20.81
2023-05-01T12:34:56.496Z,20.81
2023-05-01T12:35:57.223Z,20.80
2023-05-01T12:36:57.278Z,20.81
2023-05-01T12:37:56.288Z,20.80
2023-05-01T12:38:57.335Z,20.80
2023-05-01T12:39:57.327Z,20.80
2023-05-01T12:40:56.320Z,20.80
2023-05-01T12:41:57.329Z,20.80
2023-05-01T12:42:57.364Z,20.80
2023-05-01T12:43:56.411Z,20.80
2023-05-01T12:44:57.575Z,20.80
2023-05-01T12:45:57.531Z,20.80
2023-05-01T12:46:57.575Z,20.80
2023-05-01T12:47:57.548Z,20.81
2023-05-01T12:48:57.489Z,20.80
2023-05-01T12:49:57.739Z,20.81
2023-05-01T12:50:57.531Z,20.80
2023-05-01T12:51:57.558Z,20.81
2023-05-01T12:52:56.598Z,20.80